Terminal Aerodrome Forecast
Issued by NWS Wakefield, VA

Home | Current Version | Previous Version | Text Only | Print | Product List | Glossary On
Versions: 1 2 3 4 5 6 7 8 9 10 11 12 13 14
000
FTUS41 KAKQ 012339
TAFSBY
TAF
KSBY 012339Z 0200/0224 22004KT P6SM SCT120 BKN250
     FM020500 VRB03KT 4SM BR BKN150
     FM021000 00000KT 2SM BR BKN100
     FM021300 05004KT 4SM -RA BR SCT015 OVC035
     FM021800 21005KT P6SM BKN040=

USA.gov is the U.S. government's official web portal to all federal, state and local government web resources and services.